Time;durP1;ratioP1;P1;durP2;ratioP2;P2;SDS_P1;SDS_P2;PMS_P1;PMS_P2;Temp;Humidity;BMP_temperature;BMP_pressure;BME280_temperature;BME280_humidity;BME280_pressure;Samples;Min_cycle;Max_cycle;Signal;HPM_P1;HPM_P2
2021/07/08 06:08:12;;;;;;;16.95;7.63;;;;;;;16.08;100.00;96503.47;5089393;27;20382;-72
2021/07/08 06:10:37;;;;;;;13.45;5.70;;;;;;;16.06;99.59;96505.59;5088314;28;20552;-72
2021/07/08 06:13:03;;;;;;;13.05;5.43;;;;;;;16.27;99.45;96508.03;5076987;28;20044;-73
2021/07/08 06:15:30;;;;;;;8.48;3.40;;;;;;;16.17;97.21;96504.56;5068166;28;20224;-72
2021/07/08 06:17:56;;;;;;;7.35;2.80;;;;;;;16.26;97.10;96516.25;5070656;28;20067;-72
2021/07/08 06:20:21;;;;;;;7.57;2.58;;;;;;;16.02;95.87;96527.34;5085180;22;20045;-66
2021/07/08 06:22:47;;;;;;;6.90;2.60;;;;;;;16.00;97.12;96526.81;5066966;28;20124;-66
2021/07/08 06:25:16;;;;;;;8.68;2.72;;;;;;;16.02;96.82;96532.66;5066964;28;20434;-66
2021/07/08 06:31:04;;;;;;;10.23;3.53;;;;;;;16.23;98.08;96538.00;5068685;28;20135;-66
2021/07/08 06:33:29;;;;;;;7.93;3.08;;;;;;;16.13;95.24;96530.81;5068185;28;20040;-67
2021/07/08 06:35:55;;;;;;;8.65;4.22;;;;;;;16.17;96.38;96533.75;5068238;28;20492;-67
2021/07/08 06:38:21;;;;;;;7.38;3.03;;;;;;;16.09;95.62;96552.84;5068391;28;20068;-68
2021/07/08 06:40:49;;;;;;;7.72;3.10;;;;;;;16.08;96.98;96562.66;5067740;28;20113;-68
2021/07/08 06:43:15;;;;;;;9.57;3.03;;;;;;;16.19;97.54;96560.81;5070697;28;20209;-68
2021/07/08 06:45:41;;;;;;;7.65;3.05;;;;;;;16.29;94.73;96560.84;5068572;28;20056;-68
2021/07/08 06:48:12;;;;;;;8.00;2.95;;;;;;;16.25;94.76;96559.78;5067917;28;20047;-68
2021/07/08 06:50:39;;;;;;;8.90;3.08;;;;;;;16.15;95.03;96562.44;5066671;28;20098;-68
2021/07/08 06:53:07;;;;;;;9.32;3.78;;;;;;;16.24;96.27;96568.78;5067738;28;20058;-68
2021/07/08 06:55:34;;;;;;;8.57;3.80;;;;;;;16.31;96.30;96556.09;5066333;28;20068;-67
2021/07/08 06:58:01;;;;;;;7.47;3.00;;;;;;;16.32;95.17;96541.75;5066006;28;20566;-67
2021/07/08 07:00:33;;;;;;;7.68;3.35;;;;;;;16.41;94.42;96534.03;5066289;28;20068;-68
2021/07/08 07:03:00;;;;;;;7.28;2.90;;;;;;;16.59;92.88;96524.78;5067436;28;20458;-68
2021/07/08 07:05:28;;;;;;;7.30;3.10;;;;;;;16.58;93.40;96539.13;5067678;28;20044;-68
2021/07/08 07:07:54;;;;;;;8.85;3.72;;;;;;;16.57;94.97;96546.25;5067498;28;20041;-67
2021/07/08 07:10:21;;;;;;;8.18;3.28;;;;;;;16.79;95.65;96559.34;5066747;28;20381;-68
2021/07/08 07:12:49;;;;;;;10.30;3.20;;;;;;;16.73;94.51;96558.50;5067925;28;20451;-67
2021/07/08 07:15:23;;;;;;;7.75;3.35;;;;;;;16.76;95.00;96567.81;5067669;28;20041;-67
2021/07/08 07:17:52;;;;;;;7.15;3.17;;;;;;;16.62;94.18;96562.19;5064074;28;20041;-68
2021/07/08 07:20:22;;;;;;;8.68;3.75;;;;;;;16.88;94.25;96548.94;5054990;28;20041;-68
2021/07/08 07:22:48;;;;;;;7.72;3.40;;;;;;;17.10;91.34;96551.31;5054212;28;20033;-67
2021/07/08 07:25:16;;;;;;;7.28;3.30;;;;;;;17.08;90.82;96542.81;5054259;28;20041;-67
2021/07/08 07:27:42;;;;;;;8.07;3.42;;;;;;;17.01;89.86;96543.09;5052333;28;20040;-67
2021/07/08 07:30:09;;;;;;;9.55;3.25;;;;;;;16.79;92.85;96535.44;5054045;28;20040;-67
2021/07/08 07:32:38;;;;;;;12.43;4.05;;;;;;;16.72;94.46;96533.03;5054055;28;20186;-66
2021/07/08 07:35:04;;;;;;;10.27;4.00;;;;;;;16.78;93.65;96531.94;5054374;28;20076;-67
2021/07/08 07:37:31;;;;;;;9.18;4.07;;;;;;;16.98;94.13;96539.09;5052326;28;20033;-67
2021/07/08 07:39:56;;;;;;;11.35;4.75;;;;;;;16.98;94.02;96552.41;5054133;28;20056;-67
2021/07/08 07:42:24;;;;;;;14.80;4.60;;;;;;;17.05;94.20;96555.56;5053538;28;20065;-68
2021/07/08 07:44:50;;;;;;;7.97;2.97;;;;;;;16.91;92.40;96559.06;5053915;28;20106;-67
2021/07/08 07:47:17;;;;;;;8.50;3.10;;;;;;;16.75;92.81;96567.03;5052398;28;20047;-67
2021/07/08 07:49:44;;;;;;;8.77;4.00;;;;;;;16.91;94.84;96567.81;5052390;28;20048;-68
2021/07/08 07:52:13;;;;;;;9.32;4.32;;;;;;;17.08;95.51;96569.41;5052234;28;20081;-66
2021/07/08 07:55:07;;;;;;;8.15;4.00;;;;;;;17.05;93.67;96571.50;5053371;28;20036;-67
2021/07/08 07:57:35;;;;;;;7.70;3.33;;;;;;;17.04;90.89;96563.81;5051713;28;20114;-67
2021/07/08 08:00:01;;;;;;;7.25;3.00;;;;;;;17.20;92.29;96567.25;5053414;28;20061;-69
2021/07/08 08:02:56;;;;;;;5.72;1.90;;;;;;;17.11;90.96;96569.63;5053508;28;20041;-66
2021/07/08 08:10:41;;;;;;;7.88;2.92;;;;;;;17.05;92.91;96571.50;5053875;28;20052;-67
2021/07/08 08:14:29;;;;;;;8.40;3.55;;;;;;;17.02;92.27;96572.06;5051913;28;20044;-66
2021/07/08 08:16:53;;;;;;;8.25;3.83;;;;;;;17.04;92.68;96580.56;5051961;28;20103;-67
2021/07/08 08:19:18;;;;;;;7.95;3.50;;;;;;;17.05;93.17;96576.81;5053838;28;20045;-67
2021/07/08 08:21:46;;;;;;;7.75;3.40;;;;;;;16.99;92.95;96567.28;5053865;28;20072;-67
2021/07/08 08:27:46;;;;;;;8.20;3.40;;;;;;;17.05;92.37;96550.25;4998912;28;20308;-65
2021/07/08 08:30:15;;;;;;;7.90;3.35;;;;;;;17.12;92.78;96544.69;5051592;28;20521;-67
2021/07/08 08:32:42;;;;;;;9.40;3.22;;;;;;;17.17;92.65;96550.00;5052692;28;20060;-67
2021/07/08 08:35:09;;;;;;;6.88;2.72;;;;;;;17.16;90.18;96550.22;5052725;28;20461;-66
2021/07/08 08:38:00;;;;;;;6.65;2.15;;;;;;;17.01;88.72;96543.91;5052453;28;20099;-67
2021/07/08 08:40:48;;;;;;;5.28;1.80;;;;;;;16.98;90.34;96549.75;5054463;28;20049;-67
2021/07/08 08:43:16;;;;;;;7.28;2.05;;;;;;;16.99;90.08;96548.66;5052514;28;20451;-67
2021/07/08 08:45:47;;;;;;;7.85;2.70;;;;;;;17.12;91.57;96563.28;5052274;28;20114;-67
2021/07/08 08:48:13;;;;;;;6.65;2.30;;;;;;;17.10;92.37;96567.25;5052040;28;20511;-67
2021/07/08 08:50:40;;;;;;;7.03;2.30;;;;;;;16.99;91.61;96567.28;5052326;28;20140;-67
2021/07/08 08:53:08;;;;;;;;;;;;;;;16.96;89.79;96557.19;5052798;28;20037;-67
2021/07/08 08:55:35;;;;;;;4.93;1.75;;;;;;;16.81;88.74;96554.53;5052216;28;20285;-67
2021/07/08 08:58:01;;;;;;;4.07;1.40;;;;;;;16.71;87.76;96554.53;5050521;28;20051;-67
2021/07/08 09:00:51;;;;;;;6.78;1.50;;;;;;;16.54;86.18;96549.47;5052126;28;20120;-67
2021/07/08 09:03:22;;;;;;;4.00;1.30;;;;;;;16.51;87.83;96545.47;5052345;28;20052;-68
2021/07/08 09:05:58;;;;;;;4.38;1.50;;;;;;;16.57;89.76;96542.81;5050582;28;20045;-67
2021/07/08 09:08:28;;;;;;;5.40;1.70;;;;;;;16.50;89.29;96538.56;5051939;28;20115;-67
2021/07/08 09:11:13;;;;;;;4.28;1.42;;;;;;;16.46;88.98;96542.81;5051973;28;20110;-67
2021/07/08 09:14:05;;;;;;;4.88;1.60;;;;;;;16.45;91.36;96543.88;5052210;28;20555;-67
2021/07/08 09:16:43;;;;;;;6.32;2.00;;;;;;;16.48;91.58;96543.34;5051808;28;20087;-67
2021/07/08 09:19:11;;;;;;;4.55;1.52;;;;;;;16.45;90.28;96546.53;5051604;28;20045;-67
2021/07/08 09:21:38;;;;;;;;;;;;;;;16.32;87.78;96544.41;5051908;28;20055;-67
2021/07/08 09:24:23;;;;;;;6.30;2.13;;;;;;;16.41;91.23;96553.44;5051359;28;19917;-67
2021/07/08 09:26:55;;;;;;;8.13;3.05;;;;;;;16.43;91.67;96546.00;5042096;28;20044;-66
2021/07/08 09:29:26;;;;;;;5.00;1.70;;;;;;;16.30;91.07;96538.53;5051907;28;20063;-67
2021/07/08 09:31:54;;;;;;;5.85;1.60;;;;;;;16.28;92.56;96530.06;5051890;28;20392;-69
2021/07/08 09:34:21;;;;;;;;;;;;;;;16.31;93.78;96529.53;5052325;28;20512;-68
2021/07/08 09:37:02;;;;;;;6.72;2.20;;;;;;;16.33;93.20;96524.75;5051575;28;19926;-68
2021/07/08 09:39:32;;;;;;;6.88;2.10;;;;;;;16.21;92.62;96509.09;5051376;28;20051;-67
2021/07/08 09:41:58;;;;;;;6.18;1.90;;;;;;;16.07;93.71;96483.31;5051408;28;20484;-67
2021/07/08 09:44:30;;;;;;;6.25;2.47;;;;;;;16.06;95.12;96485.19;5051745;28;20072;-67
2021/07/08 09:46:58;;;;;;;8.05;2.55;;;;;;;16.36;95.23;96516.28;5049698;28;20036;-69
2021/07/08 09:49:25;;;;;;;7.07;2.70;;;;;;;16.34;94.58;96530.84;5051332;28;20082;-67
2021/07/08 09:51:53;;;;;;;8.68;3.42;;;;;;;16.26;95.28;96471.13;5051409;28;20394;-67
2021/07/08 09:57:33;;;;;;;11.18;3.67;;;;;;;16.34;96.19;96480.41;5051365;28;20131;-68
2021/07/08 09:59:59;;;;;;;9.45;3.40;;;;;;;16.31;95.89;96471.13;5051261;28;20073;-70
2021/07/08 10:02:30;;;;;;;9.57;3.50;;;;;;;16.41;95.90;96451.72;5051265;28;20047;-68
2021/07/08 10:04:55;;;;;;;7.82;3.55;;;;;;;16.94;94.77;96489.41;5051413;28;20045;-68
2021/07/08 10:07:21;;;;;;;9.43;4.65;;;;;;;16.93;94.45;96536.47;5051111;28;20044;-67
2021/07/08 10:09:48;;;;;;;8.70;3.50;;;;;;;16.88;94.90;96557.72;5051260;28;20055;-68
2021/07/08 10:12:14;;;;;;;8.55;3.20;;;;;;;16.94;95.39;96554.00;5051231;28;20072;-68
2021/07/08 10:14:43;;;;;;;8.48;3.25;;;;;;;17.04;94.82;96551.31;5051164;28;20041;-67
2021/07/08 10:17:11;;;;;;;7.57;3.15;;;;;;;17.01;94.51;96545.75;5049741;28;20453;-67
2021/07/08 10:19:38;;;;;;;9.48;4.72;;;;;;;17.01;94.87;96548.41;5050823;28;20041;-68
2021/07/08 10:22:04;;;;;;;10.02;3.53;;;;;;;16.98;94.53;96565.69;5049617;28;20140;-68
2021/07/08 10:24:30;;;;;;;8.80;3.70;;;;;;;17.01;94.78;96583.75;5050960;28;20040;-68
2021/07/08 10:26:58;;;;;;;8.70;4.00;;;;;;;17.05;95.21;96589.31;5049567;28;20504;-68
2021/07/08 10:29:24;;;;;;;7.47;3.50;;;;;;;17.15;94.86;96580.53;5050880;28;20052;-68
2021/07/08 10:31:51;;;;;;;10.52;4.60;;;;;;;17.25;93.25;96559.25;5053894;28;20055;-68
2021/07/08 10:34:18;;;;;;;9.93;3.95;;;;;;;17.27;91.44;96563.25;5058222;28;20104;-68
2021/07/08 10:36:45;;;;;;;8.13;2.63;;;;;;;17.17;91.28;96581.88;5057796;28;20388;-67
2021/07/08 10:39:18;;;;;;;7.93;3.00;;;;;;;17.30;92.39;96583.19;5059719;28;20196;-67
2021/07/08 10:41:47;;;;;;;7.78;2.50;;;;;;;17.32;92.55;96586.34;5053406;28;20052;-69
2021/07/08 10:44:56;;;;;;;8.25;2.80;;;;;;;17.36;93.51;96595.41;5051156;28;20472;-68
2021/07/08 10:47:40;;;;;;;5.95;2.13;;;;;;;17.25;91.68;96613.22;5052129;28;20048;-68
2021/07/08 10:50:28;;;;;;;6.35;2.55;;;;;;;17.15;93.17;96610.56;5051585;28;20064;-67
2021/07/08 10:52:54;;;;;;;9.90;3.08;;;;;;;17.15;95.43;96620.41;5049622;28;20049;-68
2021/07/08 10:55:45;;;;;;;10.90;4.85;;;;;;;17.13;94.54;96625.22;5054381;28;20412;-68
2021/07/08 10:58:36;;;;;;;9.18;3.67;;;;;;;16.93;95.17;96616.19;5039293;28;20076;-68
2021/07/08 11:01:02;;;;;;;8.02;3.50;;;;;;;17.06;95.11;96598.91;5054265;28;20048;-69
2021/07/08 11:03:43;;;;;;;9.85;4.45;;;;;;;17.23;95.86;96577.34;5054325;28;20045;-68
2021/07/08 11:06:17;;;;;;;9.55;3.80;;;;;;;17.25;94.56;96570.69;5054034;28;20098;-68
2021/07/08 11:08:58;;;;;;;9.82;3.80;;;;;;;17.45;94.64;96595.66;5054815;28;20060;-68
2021/07/08 11:12:09;;;;;;;9.45;4.22;;;;;;;17.35;94.44;96617.75;5055185;28;20451;-68
2021/07/08 11:14:41;;;;;;;10.38;4.35;;;;;;;17.30;95.28;96610.56;5018390;28;20055;-68
2021/07/08 11:17:23;;;;;;;10.38;3.92;;;;;;;17.43;94.56;96625.16;5052851;28;20045;-68
2021/07/08 11:19:52;;;;;;;9.23;4.07;;;;;;;17.48;94.61;96627.00;5053827;28;20037;-68
2021/07/08 11:22:37;;;;;;;10.05;4.32;;;;;;;17.41;94.52;96645.13;5053599;28;20036;-68
2021/07/08 11:25:06;;;;;;;10.35;4.63;;;;;;;17.31;94.90;96659.22;5054082;28;20076;-68
2021/07/08 11:27:38;;;;;;;11.27;5.63;;;;;;;17.41;95.52;96669.84;5053500;28;20040;-69
2021/07/08 11:30:24;;;;;;;11.80;5.35;;;;;;;17.24;95.80;96662.16;5053801;28;20044;-68
2021/07/08 11:32:55;;;;;;;16.23;6.43;;;;;;;17.22;96.59;96655.50;5053825;28;20037;-68
2021/07/08 11:35:32;;;;;;;20.52;7.75;;;;;;;17.17;96.77;96656.31;5054155;28;20044;-68
2021/07/08 11:38:01;;;;;;;21.15;7.20;;;;;;;17.30;96.85;96653.09;5053711;28;20120;-67
2021/07/08 11:40:31;;;;;;;14.07;6.72;;;;;;;17.24;96.92;96664.81;5053743;28;20041;-67
2021/07/08 11:42:59;;;;;;;15.95;7.07;;;;;;;17.11;96.86;96659.22;5053738;28;20453;-68
2021/07/08 11:45:26;;;;;;;16.13;7.53;;;;;;;17.23;97.12;96662.44;5053734;28;20045;-68
2021/07/08 11:47:53;;;;;;;17.30;7.18;;;;;;;17.35;97.15;96670.94;5051788;28;20072;-69
2021/07/08 11:50:22;;;;;;;15.32;7.90;;;;;;;17.22;96.87;96655.50;5054249;28;20465;-69
2021/07/08 11:52:49;;;;;;;15.02;7.65;;;;;;;17.19;96.60;96618.81;5053695;28;20671;-69
2021/07/08 11:55:16;;;;;;;15.32;6.45;;;;;;;17.01;96.50;96559.06;5053552;28;20044;-68
2021/07/08 11:57:55;;;;;;;15.60;7.18;;;;;;;16.76;98.58;96546.56;5054865;28;20516;-68
2021/07/08 12:00:32;;;;;;;14.38;7.03;;;;;;;16.71;98.20;96557.19;5055785;28;20037;-68
2021/07/08 12:02:59;;;;;;;14.43;7.35;;;;;;;16.78;98.56;96560.38;5054613;28;20052;-69
2021/07/08 12:05:26;;;;;;;14.68;7.00;;;;;;;16.78;98.45;96565.69;5053565;28;20033;-68
2021/07/08 12:07:58;;;;;;;13.40;7.03;;;;;;;16.76;98.46;96546.56;5055062;28;20040;-68
2021/07/08 12:10:29;;;;;;;13.50;6.88;;;;;;;16.74;98.50;96540.75;5055313;28;20045;-69
2021/07/08 12:12:58;;;;;;;19.42;7.53;;;;;;;16.62;98.10;96521.56;5055253;28;20051;-69
2021/07/08 12:15:24;;;;;;;14.13;6.20;;;;;;;16.53;98.05;96516.00;5053637;28;20136;-69
2021/07/08 12:17:54;;;;;;;13.82;6.25;;;;;;;16.64;98.38;96522.91;5053478;28;20061;-68
2021/07/08 12:20:20;;;;;;;11.65;6.05;;;;;;;16.66;97.84;96515.47;5072582;22;20049;-69
2021/07/08 12:22:58;;;;;;;12.70;5.90;;;;;;;16.75;97.70;96513.91;5054540;28;20044;-69
2021/07/08 12:25:25;;;;;;;12.13;6.10;;;;;;;16.77;96.97;96505.66;5069741;28;20048;-69
2021/07/08 12:27:52;;;;;;;11.75;5.20;;;;;;;16.70;96.07;96505.09;5053919;28;20084;-71
2021/07/08 12:30:23;;;;;;;11.83;5.97;;;;;;;16.67;96.35;96489.69;5055016;28;20119;-70
2021/07/08 12:33:02;;;;;;;13.23;5.97;;;;;;;16.63;96.87;96440.81;5054553;28;20103;-69
2021/07/08 12:35:41;;;;;;;9.98;4.80;;;;;;;17.04;94.53;96394.53;5054646;28;20570;-71
2021/07/08 12:38:11;;;;;;;9.85;4.65;;;;;;;17.10;95.46;96382.00;5054456;28;20045;-71
2021/07/08 12:40:37;;;;;;;12.05;6.30;;;;;;;16.89;95.95;96375.19;5054497;28;20472;-69
2021/07/08 12:43:09;;;;;;;14.75;7.45;;;;;;;16.91;96.30;96378.38;5054241;28;20041;-70
2021/07/08 12:45:36;;;;;;;12.65;6.35;;;;;;;16.90;96.86;96398.84;5052835;28;20091;-69
2021/07/08 12:48:03;;;;;;;12.27;6.35;;;;;;;16.88;96.90;96400.16;5053779;28;20048;-72
2021/07/08 12:50:36;;;;;;;11.50;5.23;;;;;;;16.79;94.98;96415.88;5054583;28;20041;-72
2021/07/08 12:53:07;;;;;;;10.55;4.50;;;;;;;16.49;96.03;96425.44;5054376;28;20314;-72
2021/07/08 12:55:37;;;;;;;12.07;4.82;;;;;;;16.62;96.73;96445.34;5053988;28;20116;-70
2021/07/08 12:58:04;;;;;;;12.40;6.03;;;;;;;16.48;96.63;96420.41;5053758;28;20172;-70
2021/07/08 13:00:31;;;;;;;11.63;5.03;;;;;;;16.46;97.08;96409.25;5053830;28;20131;-70
2021/07/08 13:02:57;;;;;;;10.93;4.43;;;;;;;16.53;96.70;96410.59;5053236;28;20041;-71
2021/07/08 13:05:33;;;;;;;10.25;3.33;;;;;;;16.59;95.41;96399.94;5053534;28;20041;-73
2021/07/08 13:07:59;;;;;;;11.20;4.55;;;;;;;16.99;96.14;96369.81;5054014;28;20044;-72
2021/07/08 13:10:35;;;;;;;12.98;6.03;;;;;;;17.32;94.88;96406.34;5053713;28;20047;-72
2021/07/08 13:13:00;;;;;;;9.85;4.72;;;;;;;17.50;94.41;96454.69;5055038;28;20051;-71
2021/07/08 13:15:27;;;;;;;11.75;5.07;;;;;;;17.95;92.78;96498.91;5059420;28;20417;-71
2021/07/08 13:18:07;;;;;;;9.98;4.50;;;;;;;17.86;90.90;96532.47;5054805;28;20120;-71
2021/07/08 13:20:34;;;;;;;10.77;4.90;;;;;;;17.77;91.91;96528.81;5055762;28;20049;-71
2021/07/08 13:23:11;;;;;;;12.70;6.30;;;;;;;17.59;91.93;96522.97;5056573;28;20047;-71
2021/07/08 13:25:39;;;;;;;11.90;5.40;;;;;;;17.70;90.85;96514.97;5056168;28;20044;-72
2021/07/08 13:28:17;;;;;;;13.98;5.47;;;;;;;17.74;92.31;96518.69;5056778;28;20045;-70
2021/07/08 13:30:45;;;;;;;9.82;4.20;;;;;;;17.89;91.97;96510.63;5055014;28;20045;-71
2021/07/08 13:33:13;;;;;;;11.63;4.70;;;;;;;18.01;91.37;96508.44;5054998;28;20041;-71
2021/07/08 13:35:53;;;;;;;9.00;4.10;;;;;;;18.24;91.72;96500.84;5056680;28;20333;-70
2021/07/08 13:38:21;;;;;;;13.00;3.97;;;;;;;18.49;91.33;96498.00;5058617;28;20028;-72
2021/07/08 13:41:05;;;;;;;8.63;2.38;;;;;;;18.19;86.96;96493.69;5061448;28;20456;-71
2021/07/08 13:43:32;;;;;;;5.18;1.75;;;;;;;18.74;84.67;96483.69;5059275;28;20041;-72
2021/07/08 13:46:10;;;;;;;9.15;2.85;;;;;;;19.38;83.19;96479.03;5060131;28;20052;-71
2021/07/08 13:48:37;;;;;;;9.60;3.60;;;;;;;19.87;82.42;96461.88;5056472;28;20045;-72
2021/07/08 13:51:05;;;;;;;8.45;2.60;;;;;;;20.39;77.19;96452.81;5054867;28;20041;-71
2021/07/08 13:53:30;;;;;;;;;;;;;;;21.28;72.27;96448.28;5053067;28;20037;-73
2021/07/08 13:55:55;;;;;;;5.90;1.80;;;;;;;21.77;71.91;96438.72;5053958;28;20268;-71
2021/07/08 13:58:22;;;;;;;7.72;1.90;;;;;;;21.96;73.25;96447.41;5052120;28;20052;-72
2021/07/08 14:00:48;;;;;;;9.25;2.00;;;;;;;21.21;73.81;96454.03;5053647;28;20484;-72
2021/07/08 14:03:16;;;;;;;8.50;2.10;;;;;;;20.83;74.38;96451.53;5058682;28;20045;-72
2021/07/08 14:05:42;;;;;;;5.55;1.60;;;;;;;20.55;75.42;96455.22;5065909;28;20049;-72
2021/07/08 14:08:08;;;;;;;7.85;2.05;;;;;;;20.30;76.82;96443.06;5053963;28;20067;-72
2021/07/08 14:10:33;;;;;;;5.47;1.60;;;;;;;20.15;76.45;96441.44;5054592;28;20051;-71
2021/07/08 14:12:59;;;;;;;6.95;1.80;;;;;;;19.54;76.96;96447.63;5052913;28;20555;-73
2021/07/08 14:15:26;;;;;;;7.53;1.75;;;;;;;19.67;78.18;96436.25;5052320;28;20052;-73
2021/07/08 14:17:52;;;;;;;5.05;1.50;;;;;;;19.86;76.83;96417.56;5053887;28;20049;-72
2021/07/08 14:20:18;;;;;;;14.45;2.55;;;;;;;19.61;76.28;96416.84;5054410;28;20416;-70
2021/07/08 14:22:43;;;;;;;8.82;3.08;;;;;;;20.02;77.00;96405.59;5056062;28;20065;-71
2021/07/08 14:25:09;;;;;;;6.43;1.83;;;;;;;19.87;75.49;96392.47;5065301;28;20074;-72
2021/07/08 14:27:35;;;;;;;3.30;1.38;;;;;;;19.99;75.92;96395.47;5054478;28;20045;-73
2021/07/08 14:30:01;;;;;;;6.50;1.40;;;;;;;20.19;76.84;96397.03;5060010;28;20121;-72
2021/07/08 14:32:28;;;;;;;4.13;1.40;;;;;;;20.14;74.86;96391.78;5059191;28;20041;-72
2021/07/08 14:34:54;;;;;;;3.95;1.40;;;;;;;20.52;74.41;96381.78;5064129;28;20043;-75
2021/07/08 14:37:19;;;;;;;5.47;1.60;;;;;;;20.34;72.27;96385.28;5057297;28;20139;-72
2021/07/08 14:39:45;;;;;;;5.93;1.90;;;;;;;20.20;73.70;96398.63;5059069;28;20615;-73
2021/07/08 14:42:19;;;;;;;6.68;1.98;;;;;;;20.39;74.73;96395.88;5058638;28;20045;-73
2021/07/08 14:44:58;;;;;;;4.57;1.40;;;;;;;20.86;73.33;96410.03;5058310;28;20429;-73
2021/07/08 14:47:25;;;;;;;5.60;1.20;;;;;;;20.71;70.53;96403.88;5056374;28;20500;-72
2021/07/08 14:49:52;;;;;;;4.37;1.47;;;;;;;20.83;71.58;96397.28;5057903;28;20480;-72
2021/07/08 14:52:20;;;;;;;3.50;1.10;;;;;;;21.06;70.74;96404.31;5058494;28;20273;-72
2021/07/08 14:54:47;;;;;;;;;;;;;;;21.12;70.57;96408.47;5056905;28;20289;-72
2021/07/08 14:57:12;;;;;;;5.18;1.30;;;;;;;20.77;69.77;96403.78;5057576;28;19982;-71
2021/07/08 14:59:38;;;;;;;2.65;1.20;;;;;;;20.56;73.86;96408.75;5058281;28;20046;-73
2021/07/08 15:02:04;;;;;;;3.40;1.20;;;;;;;20.35;71.38;96402.91;5058110;28;20045;-71
2021/07/08 15:04:30;;;;;;;5.22;1.70;;;;;;;20.55;71.90;96394.56;5058839;28;20052;-70
2021/07/08 15:06:57;;;;;;;4.00;1.45;;;;;;;20.40;71.15;96400.16;5060205;28;20045;-71
2021/07/08 15:09:24;;;;;;;4.27;1.37;;;;;;;20.15;70.37;96410.16;5062313;28;20075;-71
2021/07/08 15:11:50;;;;;;;3.53;1.20;;;;;;;20.17;72.53;96410.66;5057794;28;20064;-71
2021/07/08 15:14:16;;;;;;;4.32;1.25;;;;;;;19.86;72.49;96417.56;5057813;28;20056;-72
2021/07/08 15:16:41;;;;;;;5.68;1.30;;;;;;;19.77;73.07;96429.97;5056956;28;20053;-72
2021/07/08 15:19:07;;;;;;;5.00;1.23;;;;;;;19.77;74.13;96424.66;5056297;28;20443;-72
2021/07/08 15:21:33;;;;;;;3.97;1.38;;;;;;;19.80;74.36;96437.41;5056472;28;20048;-72
2021/07/08 15:24:00;;;;;;;4.43;1.55;;;;;;;19.66;73.61;96430.13;5057241;28;20048;-72
2021/07/08 15:26:25;;;;;;;6.05;1.60;;;;;;;19.55;75.77;96428.66;5056308;28;20393;-71
2021/07/08 15:28:51;;;;;;;4.43;1.30;;;;;;;19.67;75.95;96430.91;5056481;28;20044;-72
2021/07/08 15:31:16;;;;;;;6.30;2.53;;;;;;;19.76;75.12;96410.50;5057406;28;20092;-72
2021/07/08 15:33:46;;;;;;;8.23;3.58;;;;;;;19.79;74.81;96417.13;5058516;28;20045;-71
2021/07/08 15:36:14;;;;;;;6.22;1.65;;;;;;;19.70;73.95;96418.88;5058250;28;20145;-72
2021/07/08 15:38:40;;;;;;;6.03;1.70;;;;;;;19.88;74.40;96410.84;5055893;28;20068;-72
2021/07/08 15:41:07;;;;;;;7.07;2.20;;;;;;;20.03;74.27;96423.19;5056500;28;20037;-72
2021/07/08 15:43:32;;;;;;;5.13;1.77;;;;;;;20.08;73.99;96425.78;5055424;28;20041;-72
2021/07/08 15:45:58;;;;;;;6.38;2.20;;;;;;;20.29;75.45;96430.81;5056029;28;20508;-72
2021/07/08 15:48:23;;;;;;;5.80;1.95;;;;;;;20.32;73.56;96424.88;5056254;28;20051;-73
2021/07/08 15:50:49;;;;;;;7.85;2.20;;;;;;;20.30;73.25;96422.50;5056423;28;20330;-73
2021/07/08 15:53:20;;;;;;;9.27;3.13;;;;;;;20.56;73.24;96428.22;5058896;28;20041;-71
2021/07/08 15:55:46;;;;;;;6.95;2.00;;;;;;;20.93;72.16;96423.81;5060573;28;20072;-72
2021/07/08 15:58:12;;;;;;;6.20;1.92;;;;;;;20.84;71.82;96434.41;5055833;28;20113;-72
2021/07/08 16:00:38;;;;;;;7.33;2.30;;;;;;;20.89;71.36;96436.19;5054761;28;20052;-73
2021/07/08 16:03:06;;;;;;;5.22;1.88;;;;;;;20.78;70.84;96437.47;5055728;28;20265;-73
2021/07/08 16:05:32;;;;;;;5.93;2.00;;;;;;;20.86;70.26;96444.81;5056191;28;20072;-72
2021/07/08 16:07:57;;;;;;;7.28;2.00;;;;;;;20.99;71.79;96438.69;5066073;28;20040;-72
2021/07/08 16:10:23;;;;;;;8.07;1.90;;;;;;;20.94;70.67;96444.13;5065203;28;20056;-70
2021/07/08 16:12:48;;;;;;;5.15;2.00;;;;;;;20.98;70.29;96437.09;5060578;28;20060;-72
2021/07/08 16:15:18;;;;;;;4.63;1.60;;;;;;;21.33;69.85;96438.31;5058791;28;20431;-72
2021/07/08 16:17:44;;;;;;;5.07;1.90;;;;;;;21.22;70.30;96452.94;5057197;28;20097;-71
2021/07/08 16:20:11;;;;;;;6.10;1.80;;;;;;;21.28;70.33;96459.00;5055323;28;20102;-73
2021/07/08 16:22:37;;;;;;;6.57;1.85;;;;;;;20.95;70.84;96453.72;5056072;28;20049;-73
2021/07/08 16:25:03;;;;;;;4.53;1.52;;;;;;;20.77;69.80;96442.03;5057689;28;20047;-72
2021/07/08 16:27:31;;;;;;;5.63;1.42;;;;;;;20.66;70.44;96456.63;5055266;28;20048;-73
2021/07/08 16:29:57;;;;;;;3.67;1.50;;;;;;;20.59;71.33;96459.69;5053679;28;20407;-72
2021/07/08 16:32:24;;;;;;;7.70;3.80;;;;;;;20.62;70.84;96450.31;5056484;28;20036;-73
2021/07/08 16:34:49;;;;;;;9.73;4.13;;;;;;;20.76;71.05;96444.97;5052874;28;20118;-72
2021/07/08 16:37:15;;;;;;;5.85;2.00;;;;;;;20.40;70.72;96450.94;5054884;28;20032;-73
2021/07/08 16:39:43;;;;;;;5.70;1.80;;;;;;;20.29;71.68;96452.19;5054333;28;20051;-72
2021/07/08 16:42:09;;;;;;;6.32;2.28;;;;;;;20.21;72.95;96450.94;5054362;28;20045;-72
2021/07/08 16:44:34;;;;;;;6.15;1.80;;;;;;;20.37;73.45;96441.59;5054075;28;20087;-72
2021/07/08 16:47:00;;;;;;;6.47;1.98;;;;;;;20.32;72.54;96452.38;5053321;28;20037;-72
2021/07/08 16:49:27;;;;;;;5.75;2.00;;;;;;;20.36;72.39;96447.25;5053528;28;20360;-72
2021/07/08 16:51:52;;;;;;;6.63;2.20;;;;;;;20.03;74.00;96435.75;5052472;28;20047;-72
2021/07/08 16:54:18;;;;;;;5.35;1.98;;;;;;;20.06;74.97;96427.13;5053257;28;20044;-74
2021/07/08 16:56:44;;;;;;;5.68;1.90;;;;;;;20.09;75.08;96407.88;5053297;28;20044;-73
2021/07/08 16:59:10;;;;;;;6.32;1.90;;;;;;;20.03;75.38;96396.47;5051708;28;20072;-73
2021/07/08 17:01:38;;;;;;;5.88;1.92;;;;;;;20.01;75.82;96395.97;5054105;28;20538;-73
2021/07/08 17:04:03;;;;;;;4.70;1.60;;;;;;;19.86;76.26;96389.00;5054575;28;20033;-71
2021/07/08 17:06:32;;;;;;;7.82;3.55;;;;;;;19.83;76.27;96394.13;5052743;28;20098;-72
2021/07/08 17:08:58;;;;;;;8.40;2.53;;;;;;;19.60;76.89;96404.59;5053017;28;20041;-72
2021/07/08 17:11:24;;;;;;;8.48;3.65;;;;;;;19.59;77.46;96408.34;5053049;28;20037;-72
2021/07/08 17:13:52;;;;;;;6.43;2.25;;;;;;;19.42;77.81;96408.00;5052575;28;20556;-71
2021/07/08 17:16:20;;;;;;;6.80;1.80;;;;;;;19.57;77.90;96409.66;5052707;28;20041;-71
2021/07/08 17:18:46;;;;;;;7.22;2.00;;;;;;;19.52;77.99;96417.75;5052756;28;20033;-72
2021/07/08 17:21:15;;;;;;;9.07;3.88;;;;;;;19.54;77.91;96427.06;5052496;28;20444;-74
2021/07/08 17:23:42;;;;;;;9.20;2.70;;;;;;;19.59;77.71;96424.34;5052702;28;20469;-72
2021/07/08 17:26:07;;;;;;;6.90;2.37;;;;;;;19.69;77.32;96427.94;5052406;28;20484;-72
2021/07/08 17:28:33;;;;;;;8.23;2.28;;;;;;;19.59;78.58;96435.03;5051361;28;20037;-72
2021/07/08 17:31:01;;;;;;;9.18;2.20;;;;;;;19.37;78.32;96426.72;5052778;28;20087;-71
2021/07/08 17:33:29;;;;;;;5.80;1.88;;;;;;;19.28;79.22;96436.47;5053413;28;20411;-72
2021/07/08 17:35:58;;;;;;;7.35;2.20;;;;;;;19.24;79.67;96432.78;5052390;28;20150;-73
2021/07/08 17:38:24;;;;;;;8.38;2.42;;;;;;;19.27;79.08;96446.34;5052604;28;20112;-73
2021/07/08 17:40:51;;;;;;;5.53;2.03;;;;;;;19.25;80.28;96440.47;5053065;28;20528;-72
2021/07/08 17:43:16;;;;;;;6.90;2.27;;;;;;;19.30;79.51;96444.97;5052933;28;20043;-72
2021/07/08 17:45:44;;;;;;;7.13;2.47;;;;;;;19.20;79.68;96453.09;5053388;28;20135;-73
2021/07/08 17:48:10;;;;;;;;;;;;;;;19.24;80.21;96460.22;5052729;28;20037;-72
2021/07/08 17:50:36;;;;;;;9.43;3.88;;;;;;;19.24;81.24;96462.09;5053433;28;20023;-72
2021/07/08 17:53:02;;;;;;;7.55;2.47;;;;;;;19.12;82.01;96470.50;5052857;28;20081;-73
2021/07/08 17:55:28;;;;;;;6.45;2.40;;;;;;;19.15;83.42;96462.72;5053171;28;20043;-72
2021/07/08 17:57:55;;;;;;;7.47;2.30;;;;;;;18.99;84.72;96463.97;5052791;28;20379;-72
2021/07/08 18:00:21;;;;;;;6.57;2.43;;;;;;;18.84;87.11;96477.47;5052907;28;20037;-73
2021/07/08 18:02:51;;;;;;;6.15;2.38;;;;;;;18.67;89.02;96469.06;5052499;28;20329;-71
2021/07/08 18:05:20;;;;;;;9.55;2.67;;;;;;;18.50;88.88;96459.63;5050868;28;20443;-70
2021/07/08 18:07:47;;;;;;;8.43;2.90;;;;;;;18.42;90.37;96457.56;5051740;28;20037;-71